sensor_id;sensor_type;location;lat;lon;timestamp;pressure;altitude;pressure_sealevel;temperature;humidity
43681;BME280;29281;50.356;30.894;2023-02-13T00:00:51;101571.42;;;-1.13;72.36
43681;BME280;29281;50.356;30.894;2023-02-13T00:01:55;101561.86;;;-1.14;73.12
43681;BME280;29281;50.356;30.894;2023-02-13T00:02:59;101564.47;;;-1.14;73.33
43681;BME280;29281;50.356;30.894;2023-02-13T00:04:02;101562.72;;;-1.17;72.80
43681;BME280;29281;50.356;30.894;2023-02-13T00:05:06;101567.92;;;-1.21;72.43
43681;BME280;29281;50.356;30.894;2023-02-13T00:06:10;101569.67;;;-1.19;72.35
43681;BME280;29281;50.356;30.894;2023-02-13T00:07:12;101566.20;;;-1.18;73.60
43681;BME280;29281;50.356;30.894;2023-02-13T00:08:15;101562.71;;;-1.20;73.32
43681;BME280;29281;50.356;30.894;2023-02-13T00:09:24;101567.95;;;-1.23;72.63
43681;BME280;29281;50.356;30.894;2023-02-13T00:10:31;101567.88;;;-1.36;73.06
43681;BME280;29281;50.356;30.894;2023-02-13T00:11:35;101565.30;;;-1.30;72.81
43681;BME280;29281;50.356;30.894;2023-02-13T00:12:44;101568.81;;;-1.22;73.08
43681;BME280;29281;50.356;30.894;2023-02-13T00:13:44;101569.66;;;-1.22;72.86
43681;BME280;29281;50.356;30.894;2023-02-13T00:14:49;101564.45;;;-1.20;72.26
43681;BME280;29281;50.356;30.894;2023-02-13T00:15:54;101567.94;;;-1.26;71.86
43681;BME280;29281;50.356;30.894;2023-02-13T00:16:58;101570.52;;;-1.30;71.95
43681;BME280;29281;50.356;30.894;2023-02-13T00:18:02;101564.41;;;-1.43;72.19
43681;BME280;29281;50.356;30.894;2023-02-13T00:19:05;101554.84;;;-1.46;72.39
43681;BME280;29281;50.356;30.894;2023-02-13T00:20:11;101555.72;;;-1.45;72.96
43681;BME280;29281;50.356;30.894;2023-02-13T00:21:15;101560.94;;;-1.44;72.40
43681;BME280;29281;50.356;30.894;2023-02-13T00:22:17;101555.73;;;-1.40;73.34
43681;BME280;29281;50.356;30.894;2023-02-13T00:23:21;101550.53;;;-1.39;72.87
43681;BME280;29281;50.356;30.894;2023-02-13T00:24:24;101554.87;;;-1.33;72.15
43681;BME280;29281;50.356;30.894;2023-02-13T00:25:27;101545.31;;;-1.33;71.85
43681;BME280;29281;50.356;30.894;2023-02-13T00:26:30;101545.31;;;-1.34;71.64
43681;BME280;29281;50.356;30.894;2023-02-13T00:27:35;101546.19;;;-1.38;72.33
43681;BME280;29281;50.356;30.894;2023-02-13T00:28:38;101547.92;;;-1.40;72.39
43681;BME280;29281;50.356;30.894;2023-02-13T00:29:42;101548.78;;;-1.42;73.36
43681;BME280;29281;50.356;30.894;2023-02-13T00:30:46;101542.64;;;-1.62;73.17
43681;BME280;29281;50.356;30.894;2023-02-13T00:31:49;101551.36;;;-1.55;73.09
43681;BME280;29281;50.356;30.894;2023-02-13T00:32:53;101544.41;;;-1.55;73.03
43681;BME280;29281;50.356;30.894;2023-02-13T00:33:57;101541.80;;;-1.50;72.72
43681;BME280;29281;50.356;30.894;2023-02-13T00:35:01;101548.76;;;-1.54;72.82
43681;BME280;29281;50.356;30.894;2023-02-13T00:36:05;101544.38;;;-1.61;72.39
43681;BME280;29281;50.356;30.894;2023-02-13T00:37:12;101546.95;;;-1.71;72.98
43681;BME280;29281;50.356;30.894;2023-02-13T00:38:15;101538.30;;;-1.69;73.07
43681;BME280;29281;50.356;30.894;2023-02-13T00:39:19;101542.61;;;-1.72;73.25
43681;BME280;29281;50.356;30.894;2023-02-13T00:40:24;101548.70;;;-1.66;72.80
43681;BME280;29281;50.356;30.894;2023-02-13T00:41:27;101542.66;;;-1.59;73.35
43681;BME280;29281;50.356;30.894;2023-02-13T00:42:30;101542.67;;;-1.56;73.47
43681;BME280;29281;50.356;30.894;2023-02-13T00:43:33;101540.92;;;-1.57;72.54
43681;BME280;29281;50.356;30.894;2023-02-13T00:44:37;101546.95;;;-1.71;72.32
43681;BME280;29281;50.356;30.894;2023-02-13T00:45:41;101540.00;;;-1.74;72.23
43681;BME280;29281;50.356;30.894;2023-02-13T00:46:44;101540.84;;;-1.84;72.47
43681;BME280;29281;50.356;30.894;2023-02-13T00:47:47;101546.92;;;-1.84;72.44
43681;BME280;29281;50.356;30.894;2023-02-13T00:48:50;101545.11;;;-2.00;73.98
43681;BME280;29281;50.356;30.894;2023-02-13T00:49:56;101533.84;;;-1.99;74.64
43681;BME280;29281;50.356;30.894;2023-02-13T00:51:00;101538.15;;;-2.02;74.11
43681;BME280;29281;50.356;30.894;2023-02-13T00:52:04;101540.77;;;-1.96;73.50
43681;BME280;29281;50.356;30.894;2023-02-13T00:53:07;101532.98;;;-1.90;74.11
43681;BME280;29281;50.356;30.894;2023-02-13T00:54:10;101539.09;;;-1.81;73.34
43681;BME280;29281;50.356;30.894;2023-02-13T00:55:13;101536.44;;;-1.94;72.95
43681;BME280;29281;50.356;30.894;2023-02-13T00:56:17;101528.61;;;-1.97;73.50
43681;BME280;29281;50.356;30.894;2023-02-13T00:57:21;101524.30;;;-1.92;73.59
43681;BME280;29281;50.356;30.894;2023-02-13T00:58:25;101526.91;;;-1.91;73.37
43681;BME280;29281;50.356;30.894;2023-02-13T00:59:29;101526.93;;;-1.88;73.17
43681;BME280;29281;50.356;30.894;2023-02-13T01:00:31;101524.26;;;-1.98;73.83
43681;BME280;29281;50.356;30.894;2023-02-13T01:01:35;101528.63;;;-1.99;73.59
43681;BME280;29281;50.356;30.894;2023-02-13T01:02:38;101525.16;;;-1.93;73.66
43681;BME280;29281;50.356;30.894;2023-02-13T01:03:44;101523.44;;;-1.91;72.96
43681;BME280;29281;50.356;30.894;2023-02-13T01:04:48;101521.69;;;-1.94;73.73
43681;BME280;29281;50.356;30.894;2023-02-13T01:05:54;101518.23;;;-1.91;73.12
43681;BME280;29281;50.356;30.894;2023-02-13T01:06:58;101516.50;;;-1.91;73.98
43681;BME280;29281;50.356;30.894;2023-02-13T01:08:01;101513.89;;;-1.91;73.85
43681;BME280;29281;50.356;30.894;2023-02-13T01:09:06;101519.10;;;-1.91;73.24
43681;BME280;29281;50.356;30.894;2023-02-13T01:10:13;101515.60;;;-1.96;72.84
43681;BME280;29281;50.356;30.894;2023-02-13T01:11:18;101506.92;;;-2.01;72.65
43681;BME280;29281;50.356;30.894;2023-02-13T01:12:23;101510.39;;;-2.00;72.69
43681;BME280;29281;50.356;30.894;2023-02-13T01:13:27;101504.30;;;-2.05;72.55
43681;BME280;29281;50.356;30.894;2023-02-13T01:14:30;101508.59;;;-2.15;72.78
43681;BME280;29281;50.356;30.894;2023-02-13T01:15:34;101508.59;;;-2.17;73.01
43681;BME280;29281;50.356;30.894;2023-02-13T01:16:36;101500.72;;;-2.24;73.17
43681;BME280;29281;50.356;30.894;2023-02-13T01:17:40;101502.38;;;-2.40;74.09
43681;BME280;29281;50.356;30.894;2023-02-13T01:18:43;101503.22;;;-2.42;74.58
43681;BME280;29281;50.356;30.894;2023-02-13T01:19:47;101504.94;;;-2.49;74.24
43681;BME280;29281;50.356;30.894;2023-02-13T01:20:55;101498.83;;;-2.54;74.58
43681;BME280;29281;50.356;30.894;2023-02-13T01:21:59;101509.21;;;-2.60;75.53
43681;BME280;29281;50.356;30.894;2023-02-13T01:23:06;101510.95;;;-2.56;75.32
43681;BME280;29281;50.356;30.894;2023-02-13T01:24:10;101515.27;;;-2.57;75.36
43681;BME280;29281;50.356;30.894;2023-02-13T01:25:14;101510.10;;;-2.54;75.11
43681;BME280;29281;50.356;30.894;2023-02-13T01:26:18;101510.11;;;-2.52;75.10
43681;BME280;29281;50.356;30.894;2023-02-13T01:27:21;101503.98;;;-2.59;75.00
43681;BME280;29281;50.356;30.894;2023-02-13T01:28:25;101494.50;;;-2.54;75.21
43681;BME280;29281;50.356;30.894;2023-02-13T01:29:30;101499.70;;;-2.52;75.32
43681;BME280;29281;50.356;30.894;2023-02-13T01:30:36;101504.87;;;-2.57;75.26
43681;BME280;29281;50.356;30.894;2023-02-13T01:31:46;101505.73;;;-2.58;75.40
43681;BME280;29281;50.356;30.894;2023-02-13T01:32:51;101502.26;;;-2.58;75.54
43681;BME280;29281;50.356;30.894;2023-02-13T01:33:57;101505.75;;;-2.55;75.62
43681;BME280;29281;50.356;30.894;2023-02-13T01:35:01;101496.22;;;-2.54;75.77
43681;BME280;29281;50.356;30.894;2023-02-13T01:36:09;101496.19;;;-2.59;75.95
43681;BME280;29281;50.356;30.894;2023-02-13T01:37:11;101498.84;;;-2.53;76.00
43681;BME280;29281;50.356;30.894;2023-02-13T01:38:15;101497.97;;;-2.53;75.94
43681;BME280;29281;50.356;30.894;2023-02-13T01:39:19;101500.56;;;-2.53;76.12
43681;BME280;29281;50.356;30.894;2023-02-13T01:40:22;101491.03;;;-2.53;76.40
43681;BME280;29281;50.356;30.894;2023-02-13T01:41:25;101488.45;;;-2.51;76.83
43681;BME280;29281;50.356;30.894;2023-02-13T01:42:30;101490.20;;;-2.49;76.83
43681;BME280;29281;50.356;30.894;2023-02-13T01:43:44;101488.45;;;-2.51;76.84
43681;BME280;29281;50.356;30.894;2023-02-13T01:45:55;101495.43;;;-2.41;77.02
43681;BME280;29281;50.356;30.894;2023-02-13T01:47:00;101488.48;;;-2.42;76.79
43681;BME280;29281;50.356;30.894;2023-02-13T01:48:07;101492.85;;;-2.38;76.57
43681;BME280;29281;50.356;30.894;2023-02-13T01:49:12;101486.80;;;-2.35;77.73
43681;BME280;29281;50.356;30.894;2023-02-13T01:51:31;101485.97;;;-2.30;77.64
43681;BME280;29281;50.356;30.894;2023-02-13T01:52:37;101485.11;;;-2.24;77.59
43681;BME280;29281;50.356;30.894;2023-02-13T01:53:43;101490.34;;;-2.20;77.94
43681;BME280;29281;50.356;30.894;2023-02-13T01:54:47;101487.77;;;-2.17;77.96
43681;BME280;29281;50.356;30.894;2023-02-13T01:55:55;101486.03;;;-2.16;77.59
43681;BME280;29281;50.356;30.894;2023-02-13T01:56:57;101492.09;;;-2.19;76.50
43681;BME280;29281;50.356;30.894;2023-02-13T01:58:06;101497.27;;;-2.22;77.36
43681;BME280;29281;50.356;30.894;2023-02-13T01:59:15;101493.83;;;-2.18;77.17
43681;BME280;29281;50.356;30.894;2023-02-13T02:00:15;101492.95;;;-2.20;76.37
43681;BME280;29281;50.356;30.894;2023-02-13T02:01:27;101495.58;;;-2.17;76.19
43681;BME280;29281;50.356;30.894;2023-02-13T02:02:30;101483.41;;;-2.19;76.35
43681;BME280;29281;50.356;30.894;2023-02-13T02:04:44;101485.16;;;-2.18;78.44
43681;BME280;29281;50.356;30.894;2023-02-13T02:05:52;101477.34;;;-2.18;78.43
43681;BME280;29281;50.356;30.894;2023-02-13T02:07:00;101477.36;;;-2.10;77.62
43681;BME280;29281;50.356;30.894;2023-02-13T02:08:05;101468.70;;;-2.08;77.46
43681;BME280;29281;50.356;30.894;2023-02-13T02:09:13;101468.73;;;-2.03;78.17
43681;BME280;29281;50.356;30.894;2023-02-13T02:10:20;101468.73;;;-2.03;78.36
43681;BME280;29281;50.356;30.894;2023-02-13T02:11:31;101473.95;;;-1.94;78.02
43681;BME280;29281;50.356;30.894;2023-02-13T02:12:34;101476.54;;;-1.97;77.57
43681;BME280;29281;50.356;30.894;2023-02-13T02:13:39;101470.48;;;-1.99;78.59
43681;BME280;29281;50.356;30.894;2023-02-13T02:14:45;101470.50;;;-1.92;77.81
43681;BME280;29281;50.356;30.894;2023-02-13T02:15:51;101467.02;;;-1.92;78.10
43681;BME280;29281;50.356;30.894;2023-02-13T02:16:57;101468.77;;;-1.90;77.88
43681;BME280;29281;50.356;30.894;2023-02-13T02:18:00;101467.00;;;-2.01;77.90
43681;BME280;29281;50.356;30.894;2023-02-13T02:19:04;101467.86;;;-1.98;78.03
43681;BME280;29281;50.356;30.894;2023-02-13T02:21:50;101473.11;;;-1.90;77.32
43681;BME280;29281;50.356;30.894;2023-02-13T02:24:38;101464.37;;;-2.06;78.46
43681;BME280;29281;50.356;30.894;2023-02-13T02:27:10;101464.37;;;-2.06;78.19
43681;BME280;29281;50.356;30.894;2023-02-13T02:30:31;101469.61;;;-2.01;78.64
43681;BME280;29281;50.356;30.894;2023-02-13T02:32:53;101473.11;;;-1.90;77.34
43681;BME280;29281;50.356;30.894;2023-02-13T02:34:00;101471.40;;;-1.85;76.97
43681;BME280;29281;50.356;30.894;2023-02-13T02:35:11;101474.86;;;-1.80;76.49
43681;BME280;29281;50.356;30.894;2023-02-13T02:41:06;101471.42;;;-1.67;76.53
43681;BME280;29281;50.356;30.894;2023-02-13T02:44:42;101476.64;;;-1.64;76.15
43681;BME280;29281;50.356;30.894;2023-02-13T02:45:50;101477.52;;;-1.63;76.57
43681;BME280;29281;50.356;30.894;2023-02-13T02:48:42;101464.48;;;-1.74;76.08
43681;BME280;29281;50.356;30.894;2023-02-13T02:50:15;101464.49;;;-1.71;75.90
43681;BME280;29281;50.356;30.894;2023-02-13T02:51:21;101472.28;;;-1.75;75.85
43681;BME280;29281;50.356;30.894;2023-02-13T02:52:30;101468.84;;;-1.70;76.24
43681;BME280;29281;50.356;30.894;2023-02-13T02:54:47;101467.95;;;-1.73;75.93
43681;BME280;29281;50.356;30.894;2023-02-13T02:56:16;101463.61;;;-1.73;76.14
43681;BME280;29281;50.356;30.894;2023-02-13T02:57:20;101463.63;;;-1.70;76.48
43681;BME280;29281;50.356;30.894;2023-02-13T02:58:31;101462.74;;;-1.66;75.76
43681;BME280;29281;50.356;30.894;2023-02-13T02:59:53;101474.03;;;-1.65;75.52
43681;BME280;29281;50.356;30.894;2023-02-13T03:01:15;101465.34;;;-1.66;76.77
43681;BME280;29281;50.356;30.894;2023-02-13T03:02:38;101471.42;;;-1.65;76.00
43681;BME280;29281;50.356;30.894;2023-02-13T03:03:59;101467.96;;;-1.64;75.79
43681;BME280;29281;50.356;30.894;2023-02-13T03:05:23;101467.96;;;-1.64;75.85
43681;BME280;29281;50.356;30.894;2023-02-13T03:07:53;101459.29;;;-1.62;75.74
43681;BME280;29281;50.356;30.894;2023-02-13T03:09:00;101461.00;;;-1.67;75.52
43681;BME280;29281;50.356;30.894;2023-02-13T03:10:26;101461.88;;;-1.65;75.57
43681;BME280;29281;50.356;30.894;2023-02-13T03:11:48;101454.95;;;-1.69;76.15
43681;BME280;29281;50.356;30.894;2023-02-13T03:13:15;101450.58;;;-1.67;76.35
43681;BME280;29281;50.356;30.894;2023-02-13T03:14:26;101458.41;;;-1.65;75.91
43681;BME280;29281;50.356;30.894;2023-02-13T03:15:30;101443.64;;;-1.65;75.88
43681;BME280;29281;50.356;30.894;2023-02-13T03:16:34;101443.64;;;-1.66;76.64
43681;BME280;29281;50.356;30.894;2023-02-13T03:17:56;101446.27;;;-1.69;76.36
43681;BME280;29281;50.356;30.894;2023-02-13T03:19:24;101445.38;;;-1.65;76.33
43681;BME280;29281;50.356;30.894;2023-02-13T03:20:49;101447.98;;;-1.65;76.70
43681;BME280;29281;50.356;30.894;2023-02-13T03:22:13;101447.11;;;-1.67;76.00
43681;BME280;29281;50.356;30.894;2023-02-13T03:23:32;101446.27;;;-1.71;75.96
43681;BME280;29281;50.356;30.894;2023-02-13T03:27:23;101439.30;;;-1.84;76.82
43681;BME280;29281;50.356;30.894;2023-02-13T03:28:32;101442.77;;;-1.84;77.14
43681;BME280;29281;50.356;30.894;2023-02-13T03:29:55;101445.33;;;-1.93;76.93
43681;BME280;29281;50.356;30.894;2023-02-13T03:31:27;101445.34;;;-1.90;77.98
43681;BME280;29281;50.356;30.894;2023-02-13T03:32:35;101443.63;;;-1.85;78.19
43681;BME280;29281;50.356;30.894;2023-02-13T03:35:13;101436.70;;;-1.73;77.12
43681;BME280;29281;50.356;30.894;2023-02-13T03:37:49;101427.16;;;-1.73;77.90
43681;BME280;29281;50.356;30.894;2023-02-13T03:38:57;101424.52;;;-1.79;77.56
43681;BME280;29281;50.356;30.894;2023-02-13T03:40:08;101427.98;;;-1.82;78.02
43681;BME280;29281;50.356;30.894;2023-02-13T03:41:16;101421.91;;;-1.88;78.29
43681;BME280;29281;50.356;30.894;2023-02-13T03:43:33;101428.88;;;-1.78;77.96
43681;BME280;29281;50.356;30.894;2023-02-13T03:44:38;101427.97;;;-1.94;77.66
43681;BME280;29281;50.356;30.894;2023-02-13T03:45:43;101421.89;;;-1.93;78.56
43681;BME280;29281;50.356;30.894;2023-02-13T03:46:58;101427.96;;;-1.95;78.99
43681;BME280;29281;50.356;30.894;2023-02-13T03:48:04;101419.30;;;-1.93;78.53
43681;BME280;29281;50.356;30.894;2023-02-13T03:49:12;101419.31;;;-1.88;78.20
43681;BME280;29281;50.356;30.894;2023-02-13T03:50:35;101419.31;;;-1.88;78.52
43681;BME280;29281;50.356;30.894;2023-02-13T03:51:42;101419.30;;;-1.99;79.11
43681;BME280;29281;50.356;30.894;2023-02-13T03:54:11;101411.48;;;-2.00;79.60
43681;BME280;29281;50.356;30.894;2023-02-13T03:55:12;101410.61;;;-1.95;79.57
43681;BME280;29281;50.356;30.894;2023-02-13T03:56:34;101413.22;;;-1.93;79.37
43681;BME280;29281;50.356;30.894;2023-02-13T03:58:02;101404.58;;;-1.85;79.42
43681;BME280;29281;50.356;30.894;2023-02-13T03:59:23;101401.95;;;-1.88;79.24
43681;BME280;29281;50.356;30.894;2023-02-13T04:00:35;101405.44;;;-1.84;78.97
43681;BME280;29281;50.356;30.894;2023-02-13T04:01:36;101411.50;;;-1.88;79.14
43681;BME280;29281;50.356;30.894;2023-02-13T04:02:53;101398.47;;;-1.91;79.36
43681;BME280;29281;50.356;30.894;2023-02-13T04:03:48;101397.61;;;-1.90;79.76
43681;BME280;29281;50.356;30.894;2023-02-13T04:04:53;101396.73;;;-1.91;79.93
43681;BME280;29281;50.356;30.894;2023-02-13T04:06:00;101400.18;;;-1.98;79.59
43681;BME280;29281;50.356;30.894;2023-02-13T04:07:04;101391.52;;;-1.94;80.18
43681;BME280;29281;50.356;30.894;2023-02-13T04:08:08;101390.66;;;-1.93;80.54
43681;BME280;29281;50.356;30.894;2023-02-13T04:09:11;101388.07;;;-1.88;80.69
43681;BME280;29281;50.356;30.894;2023-02-13T04:10:16;101387.18;;;-1.93;80.63
43681;BME280;29281;50.356;30.894;2023-02-13T04:11:44;101386.30;;;-1.95;81.34
43681;BME280;29281;50.356;30.894;2023-02-13T04:14:06;101381.12;;;-1.89;81.39
43681;BME280;29281;50.356;30.894;2023-02-13T04:15:13;101382.85;;;-1.82;80.89
43681;BME280;29281;50.356;30.894;2023-02-13T04:16:29;101379.38;;;-1.81;80.70
43681;BME280;29281;50.356;30.894;2023-02-13T04:17:43;101379.38;;;-1.81;80.69
43681;BME280;29281;50.356;30.894;2023-02-13T04:18:44;101381.98;;;-1.92;81.34
43681;BME280;29281;50.356;30.894;2023-02-13T04:19:47;101375.91;;;-1.91;80.89
43681;BME280;29281;50.356;30.894;2023-02-13T04:20:51;101385.42;;;-2.06;81.60
43681;BME280;29281;50.356;30.894;2023-02-13T04:21:54;101378.45;;;-2.12;82.09
43681;BME280;29281;50.356;30.894;2023-02-13T04:23:03;101377.58;;;-2.22;82.43
43681;BME280;29281;50.356;30.894;2023-02-13T04:24:07;101375.87;;;-2.09;82.79
43681;BME280;29281;50.356;30.894;2023-02-13T04:25:10;101380.22;;;-2.06;82.44
43681;BME280;29281;50.356;30.894;2023-02-13T04:26:16;101375.87;;;-2.09;82.22
43681;BME280;29281;50.356;30.894;2023-02-13T04:27:24;101372.44;;;-2.00;82.40
43681;BME280;29281;50.356;30.894;2023-02-13T04:28:29;101381.01;;;-2.35;83.52
43681;BME280;29281;50.356;30.894;2023-02-13T04:29:33;101372.37;;;-2.22;83.58
43681;BME280;29281;50.356;30.894;2023-02-13T04:30:36;101370.65;;;-2.20;83.55
43681;BME280;29281;50.356;30.894;2023-02-13T04:31:41;101374.12;;;-2.18;83.76
43681;BME280;29281;50.356;30.894;2023-02-13T04:32:44;101374.13;;;-2.16;83.56
43681;BME280;29281;50.356;30.894;2023-02-13T04:33:51;101375.01;;;-2.14;83.55
43681;BME280;29281;50.356;30.894;2023-02-13T04:34:53;101381.95;;;-2.07;83.32
43681;BME280;29281;50.356;30.894;2023-02-13T04:35:57;101379.34;;;-2.07;83.72
43681;BME280;29281;50.356;30.894;2023-02-13T04:37:00;101378.50;;;-1.95;83.60
43681;BME280;29281;50.356;30.894;2023-02-13T04:38:03;101374.16;;;-2.02;83.03
43681;BME280;29281;50.356;30.894;2023-02-13T04:39:06;101369.78;;;-2.13;83.72
43681;BME280;29281;50.356;30.894;2023-02-13T04:40:11;101368.08;;;-2.06;83.99
43681;BME280;29281;50.356;30.894;2023-02-13T04:41:15;101371.55;;;-2.04;83.97
43681;BME280;29281;50.356;30.894;2023-02-13T04:42:18;101364.58;;;-2.19;84.58
43681;BME280;29281;50.356;30.894;2023-02-13T04:43:23;101372.37;;;-2.22;84.25
43681;BME280;29281;50.356;30.894;2023-02-13T04:44:27;101368.09;;;-2.03;84.51
43681;BME280;29281;50.356;30.894;2023-02-13T04:45:31;101375.86;;;-2.10;84.94
43681;BME280;29281;50.356;30.894;2023-02-13T04:46:35;101364.63;;;-2.00;84.31
43681;BME280;29281;50.356;30.894;2023-02-13T04:47:37;101370.72;;;-1.86;83.88
43681;BME280;29281;50.356;30.894;2023-02-13T04:48:41;101365.48;;;-2.03;84.51
43681;BME280;29281;50.356;30.894;2023-02-13T04:49:44;101365.48;;;-1.95;84.57
43681;BME280;29281;50.356;30.894;2023-02-13T04:50:46;101358.52;;;-2.08;84.68
43681;BME280;29281;50.356;30.894;2023-02-13T04:51:50;101363.77;;;-1.99;85.01
43681;BME280;29281;50.356;30.894;2023-02-13T04:52:53;101362.02;;;-1.94;84.99
43681;BME280;29281;50.356;30.894;2023-02-13T04:54:03;101369.86;;;-1.85;84.69
43681;BME280;29281;50.356;30.894;2023-02-13T04:55:08;101368.98;;;-1.78;84.24
43681;BME280;29281;50.356;30.894;2023-02-13T04:56:12;101371.59;;;-1.66;84.04
43681;BME280;29281;50.356;30.894;2023-02-13T04:57:15;101369.87;;;-1.59;83.80
43681;BME280;29281;50.356;30.894;2023-02-13T04:58:18;101362.93;;;-1.56;83.31
43681;BME280;29281;50.356;30.894;2023-02-13T04:59:24;101366.41;;;-1.54;83.38
43681;BME280;29281;50.356;30.894;2023-02-13T05:00:28;101366.39;;;-1.60;83.51
43681;BME280;29281;50.356;30.894;2023-02-13T05:01:32;101371.61;;;-1.57;84.24
43681;BME280;29281;50.356;30.894;2023-02-13T05:02:34;101373.34;;;-1.47;84.00
43681;BME280;29281;50.356;30.894;2023-02-13T05:03:39;101374.22;;;-1.42;83.42
43681;BME280;29281;50.356;30.894;2023-02-13T05:04:42;101373.33;;;-1.33;83.44
43681;BME280;29281;50.356;30.894;2023-02-13T05:05:46;101369.86;;;-1.24;82.94
43681;BME280;29281;50.356;30.894;2023-02-13T05:06:49;101366.36;;;-1.16;83.04
43681;BME280;29281;50.356;30.894;2023-02-13T05:07:52;101370.70;;;-1.18;83.07
43681;BME280;29281;50.356;30.894;2023-02-13T05:08:56;101372.45;;;-1.11;83.05
43681;BME280;29281;50.356;30.894;2023-02-13T05:10:01;101372.45;;;-1.12;83.31
43681;BME280;29281;50.356;30.894;2023-02-13T05:11:04;101365.46;;;-0.95;82.51
43681;BME280;29281;50.356;30.894;2023-02-13T05:12:08;101364.55;;;-0.88;82.42
43681;BME280;29281;50.356;30.894;2023-02-13T05:13:13;101369.77;;;-0.85;82.32
43681;BME280;29281;50.356;30.894;2023-02-13T05:14:19;101373.25;;;-0.81;81.59
43681;BME280;29281;50.356;30.894;2023-02-13T05:15:25;101375.85;;;-0.77;81.57
43681;BME280;29281;50.356;30.894;2023-02-13T05:16:30;101372.37;;;-0.79;81.44
43681;BME280;29281;50.356;30.894;2023-02-13T05:17:33;101375.85;;;-0.80;82.29
43681;BME280;29281;50.356;30.894;2023-02-13T05:18:36;101369.77;;;-0.83;82.23
43681;BME280;29281;50.356;30.894;2023-02-13T05:19:40;101362.81;;;-0.78;82.32
43681;BME280;29281;50.356;30.894;2023-02-13T05:20:43;101370.64;;;-0.80;82.52
43681;BME280;29281;50.356;30.894;2023-02-13T05:21:45;101370.59;;;-0.75;82.69
43681;BME280;29281;50.356;30.894;2023-02-13T05:23:08;101360.16;;;-0.74;82.08
43681;BME280;29281;50.356;30.894;2023-02-13T05:24:25;101361.89;;;-0.65;81.94
43681;BME280;29281;50.356;30.894;2023-02-13T05:25:28;101367.01;;;-0.45;81.13
43681;BME280;29281;50.356;30.894;2023-02-13T05:26:31;101363.57;;;-0.50;81.11
43681;BME280;29281;50.356;30.894;2023-02-13T05:27:34;101367.05;;;-0.48;81.19
43681;BME280;29281;50.356;30.894;2023-02-13T05:28:37;101354.88;;;-0.52;81.14
43681;BME280;29281;50.356;30.894;2023-02-13T05:30:00;101367.05;;;-0.48;81.07
43681;BME280;29281;50.356;30.894;2023-02-13T05:31:03;101370.47;;;-0.39;81.21
43681;BME280;29281;50.356;30.894;2023-02-13T05:32:07;101368.68;;;-0.30;80.72
43681;BME280;29281;50.356;30.894;2023-02-13T05:33:10;101364.33;;;-0.30;80.93
43681;BME280;29281;50.356;30.894;2023-02-13T05:34:15;101360.80;;;-0.17;80.50
43681;BME280;29281;50.356;30.894;2023-02-13T05:35:24;101368.64;;;-0.17;80.30
43681;BME280;29281;50.356;30.894;2023-02-13T05:36:25;101362.56;;;-0.22;80.55
43681;BME280;29281;50.356;30.894;2023-02-13T05:37:28;101364.23;;;-0.10;79.89
43681;BME280;29281;50.356;30.894;2023-02-13T05:38:32;101358.10;;;-0.02;79.42
43681;BME280;29281;50.356;30.894;2023-02-13T05:39:35;101363.35;;;-0.08;79.68
43681;BME280;29281;50.356;30.894;2023-02-13T05:40:39;101367.70;;;-0.07;79.69
43681;BME280;29281;50.356;30.894;2023-02-13T05:41:44;101366.81;;;-0.04;79.87
43681;BME280;29281;50.356;30.894;2023-02-13T05:42:47;101365.06;;;-0.01;79.51
43681;BME280;29281;50.356;30.894;2023-02-13T05:43:51;101368.50;;;0.02;79.52
43681;BME280;29281;50.356;30.894;2023-02-13T05:44:55;101358.06;;;0.02;79.49
43681;BME280;29281;50.356;30.894;2023-02-13T05:46:02;101364.14;;;0.05;79.81
43681;BME280;29281;50.356;30.894;2023-02-13T05:47:06;101356.30;;;0.07;79.69
43681;BME280;29281;50.356;30.894;2023-02-13T05:48:09;101356.30;;;0.07;79.30
43681;BME280;29281;50.356;30.894;2023-02-13T05:49:13;101358.02;;;0.11;79.13
43681;BME280;29281;50.356;30.894;2023-02-13T05:50:16;101351.86;;;0.18;79.10
43681;BME280;29281;50.356;30.894;2023-02-13T05:51:20;101355.33;;;0.20;79.78
43681;BME280;29281;50.356;30.894;2023-02-13T05:52:23;101355.30;;;0.26;78.92
43681;BME280;29281;50.356;30.894;2023-02-13T05:53:26;101348.25;;;0.34;78.60
43681;BME280;29281;50.356;30.894;2023-02-13T05:54:28;101356.09;;;0.34;78.55
43681;BME280;29281;50.356;30.894;2023-02-13T05:55:32;101351.73;;;0.33;78.43
43681;BME280;29281;50.356;30.894;2023-02-13T05:56:34;101347.44;;;0.30;78.39
43681;BME280;29281;50.356;30.894;2023-02-13T05:57:37;101343.11;;;0.25;78.64
43681;BME280;29281;50.356;30.894;2023-02-13T05:58:41;101351.72;;;0.38;78.78
43681;BME280;29281;50.356;30.894;2023-02-13T05:59:46;101350.88;;;0.31;78.71
43681;BME280;29281;50.356;30.894;2023-02-13T06:00:50;101354.31;;;0.41;78.74
43681;BME280;29281;50.356;30.894;2023-02-13T06:01:54;101355.94;;;0.54;78.52
43681;BME280;29281;50.356;30.894;2023-02-13T06:03:00;101347.99;;;0.64;77.67
43681;BME280;29281;50.356;30.894;2023-02-13T06:04:03;101354.21;;;0.51;77.15
43681;BME280;29281;50.356;30.894;2023-02-13T06:05:07;101350.73;;;0.49;78.44
43681;BME280;29281;50.356;30.894;2023-02-13T06:06:10;101353.30;;;0.58;77.99
43681;BME280;29281;50.356;30.894;2023-02-13T06:07:13;101351.50;;;0.62;77.71
43681;BME280;29281;50.356;30.894;2023-02-13T06:08:16;101355.95;;;0.51;78.52
43681;BME280;29281;50.356;30.894;2023-02-13T06:09:20;101352.60;;;0.35;78.55
43681;BME280;29281;50.356;30.894;2023-02-13T06:10:24;101342.90;;;0.49;78.99
43681;BME280;29281;50.356;30.894;2023-02-13T06:11:28;101342.92;;;0.46;78.39
43681;BME280;29281;50.356;30.894;2023-02-13T06:12:35;101342.08;;;0.46;78.23
43681;BME280;29281;50.356;30.894;2023-02-13T06:13:38;101347.45;;;0.26;79.49
43681;BME280;29281;50.356;30.894;2023-02-13T06:14:43;101349.95;;;0.41;79.84
43681;BME280;29281;50.356;30.894;2023-02-13T06:15:46;101336.92;;;0.35;79.61